createdAt,value
2019-03-10T00:01:17.194Z,14.53
2019-03-10T00:03:51.719Z,13.40
2019-03-10T00:06:26.428Z,14.30
2019-03-10T00:09:27.754Z,11.80
2019-03-10T00:12:02.358Z,15.72
2019-03-10T00:14:57.490Z,14.75
2019-03-10T00:17:34.655Z,13.80
2019-03-10T00:20:12.137Z,16.12
2019-03-10T00:22:49.377Z,17.00
2019-03-10T00:25:27.102Z,19.70
2019-03-10T00:28:04.414Z,17.92
2019-03-10T00:30:41.524Z,16.70
2019-03-10T00:33:18.985Z,17.87
2019-03-10T00:35:56.115Z,18.50
2019-03-10T00:38:34.845Z,19.02
2019-03-10T00:41:56.419Z,20.43
2019-03-10T00:45:29.687Z,18.82
2019-03-10T00:48:32.371Z,18.05
2019-03-10T00:51:54.241Z,16.90
2019-03-10T00:54:31.311Z,22.25
2019-03-10T00:57:08.802Z,23.67
2019-03-10T00:59:46.033Z,21.12
2019-03-10T01:02:23.097Z,21.23
2019-03-10T01:05:00.328Z,19.10
2019-03-10T01:07:37.543Z,19.02
2019-03-10T01:10:15.368Z,18.42
2019-03-10T01:12:52.569Z,22.52
2019-03-10T01:15:30.118Z,19.80
2019-03-10T01:18:08.492Z,21.77
2019-03-10T01:20:45.822Z,15.28
2019-03-10T01:23:23.003Z,21.68
2019-03-10T01:26:01.380Z,16.37
2019-03-10T01:28:38.589Z,21.95
2019-03-10T01:31:26.550Z,16.42
2019-03-10T01:34:38.555Z,18.02
2019-03-10T01:37:15.753Z,18.05
2019-03-10T01:39:52.851Z,15.75
2019-03-10T01:42:30.021Z,18.57
2019-03-10T01:45:07.200Z,17.17
2019-03-10T01:47:44.533Z,16.45
2019-03-10T01:50:21.786Z,15.83
2019-03-10T01:52:58.950Z,16.12
2019-03-10T01:55:36.130Z,18.55
2019-03-10T01:58:13.395Z,17.57
2019-03-10T02:00:50.520Z,17.77
2019-03-10T02:03:27.668Z,18.62
2019-03-10T02:06:04.823Z,14.20
2019-03-10T02:08:42.307Z,15.88
2019-03-10T02:11:19.482Z,17.82
2019-03-10T02:13:54.083Z,15.80
2019-03-10T02:16:31.253Z,15.05
2019-03-10T02:19:08.511Z,15.55
2019-03-10T02:21:45.551Z,17.12
2019-03-10T02:24:24.056Z,20.77
2019-03-10T02:27:01.410Z,16.73
2019-03-10T02:29:38.642Z,14.00
2019-03-10T02:32:15.754Z,48.68
2019-03-10T02:34:52.873Z,17.32
2019-03-10T02:37:30.106Z,17.20
2019-03-10T02:40:07.207Z,16.35
2019-03-10T02:42:44.484Z,18.35
2019-03-10T02:45:21.812Z,17.65
2019-03-10T02:47:59.586Z,15.98
2019-03-10T02:50:36.748Z,13.48
2019-03-10T02:53:13.936Z,16.05
2019-03-10T02:55:51.258Z,17.23
2019-03-10T02:58:28.383Z,17.42
2019-03-10T03:01:05.543Z,14.55
2019-03-10T03:03:42.618Z,17.17
2019-03-10T03:06:19.695Z,18.00
2019-03-10T03:08:56.864Z,18.55
2019-03-10T03:11:34.700Z,18.45
2019-03-10T03:14:11.983Z,12.98
2019-03-10T03:16:46.624Z,24.45
2019-03-10T03:19:25.539Z,27.40
2019-03-10T03:22:00.399Z,14.05
2019-03-10T03:24:38.827Z,18.95
2019-03-10T03:27:16.024Z,16.82
2019-03-10T03:29:53.197Z,14.00
2019-03-10T03:32:32.065Z,13.90
2019-03-10T03:35:10.194Z,18.25
2019-03-10T03:37:47.430Z,12.85
2019-03-10T03:40:24.559Z,14.98
2019-03-10T03:43:01.713Z,14.30
2019-03-10T03:45:41.198Z,15.08
2019-03-10T03:48:18.462Z,16.57
2019-03-10T03:50:55.673Z,12.68
2019-03-10T03:53:33.048Z,12.98
2019-03-10T03:56:10.179Z,15.03
2019-03-10T03:58:47.394Z,14.53
2019-03-10T04:01:25.876Z,13.80
2019-03-10T04:04:03.274Z,14.30
2019-03-10T04:06:40.746Z,13.62
2019-03-10T04:09:17.923Z,14.58
2019-03-10T04:11:55.071Z,14.18
2019-03-10T04:14:32.187Z,12.73
2019-03-10T04:17:09.283Z,12.90
2019-03-10T04:19:46.379Z,13.65
2019-03-10T04:22:23.438Z,12.60
2019-03-10T04:25:00.549Z,17.73
2019-03-10T04:27:37.611Z,12.53
2019-03-10T04:30:15.667Z,16.23
2019-03-10T04:32:53.169Z,15.78
2019-03-10T04:35:31.920Z,12.58
2019-03-10T04:38:09.072Z,16.62
2019-03-10T04:40:46.291Z,14.85
2019-03-10T04:43:23.471Z,16.32
2019-03-10T04:46:00.667Z,13.98
2019-03-10T04:48:39.131Z,12.65
2019-03-10T04:51:16.467Z,16.37
2019-03-10T04:53:53.684Z,18.07
2019-03-10T04:56:36.100Z,15.63
2019-03-10T04:59:13.281Z,16.80
2019-03-10T05:01:50.758Z,12.80
2019-03-10T05:07:17.679Z,16.32
2019-03-10T05:09:55.815Z,17.60
2019-03-10T05:12:33.009Z,14.03
2019-03-10T05:15:11.213Z,13.55
2019-03-10T05:17:48.539Z,17.62
2019-03-10T05:20:27.698Z,17.95
2019-03-10T05:23:40.852Z,16.80
2019-03-10T05:26:19.238Z,16.57
2019-03-10T05:28:56.754Z,12.88
2019-03-10T05:31:33.886Z,16.97
2019-03-10T05:34:13.023Z,16.65
2019-03-10T05:36:55.613Z,17.17
2019-03-10T05:39:31.810Z,15.68
2019-03-10T05:42:09.348Z,14.33
2019-03-10T05:44:46.584Z,17.80
2019-03-10T05:47:24.578Z,19.32
2019-03-10T05:50:01.680Z,17.55
2019-03-10T05:52:39.519Z,19.48
2019-03-10T05:55:16.618Z,15.30
2019-03-10T05:57:54.037Z,13.98
2019-03-10T06:00:41.713Z,16.05
2019-03-10T06:03:10.114Z,20.02
2019-03-10T06:05:47.180Z,15.38
2019-03-10T06:08:24.377Z,19.92
2019-03-10T06:11:01.687Z,20.97
2019-03-10T06:13:39.002Z,16.35
2019-03-10T06:16:17.294Z,18.23
2019-03-10T06:18:54.569Z,17.23
2019-03-10T06:21:31.706Z,17.98
2019-03-10T06:24:08.762Z,19.98
2019-03-10T06:26:45.890Z,16.57
2019-03-10T06:29:23.163Z,17.52
2019-03-10T06:31:57.804Z,19.98
2019-03-10T06:34:34.939Z,16.32
2019-03-10T06:37:11.942Z,18.73
2019-03-10T06:39:46.769Z,18.75
2019-03-10T06:42:21.467Z,19.90
2019-03-10T06:45:04.330Z,17.95
2019-03-10T06:47:41.690Z,18.07
2019-03-10T06:50:19.132Z,18.17
2019-03-10T06:52:56.576Z,18.60
2019-03-10T06:55:33.776Z,19.90
2019-03-10T06:58:11.037Z,21.40
2019-03-10T07:00:48.194Z,16.95
2019-03-10T07:03:26.097Z,16.17
2019-03-10T07:06:03.284Z,18.00
2019-03-10T07:08:40.325Z,16.50
2019-03-10T07:11:18.156Z,16.37
2019-03-10T07:13:55.450Z,18.65
2019-03-10T07:16:32.672Z,18.10
2019-03-10T07:19:10.140Z,20.05
2019-03-10T07:21:47.434Z,16.23
2019-03-10T07:24:24.695Z,15.53
2019-03-10T07:27:02.362Z,17.92
2019-03-10T07:29:47.227Z,20.48
2019-03-10T07:32:29.272Z,17.67
2019-03-10T07:35:16.128Z,15.43
2019-03-10T07:38:10.227Z,18.12
2019-03-10T07:41:12.411Z,20.70
2019-03-10T07:44:05.492Z,16.17
2019-03-10T07:47:05.483Z,17.98
2019-03-10T07:50:20.858Z,16.52
2019-03-10T07:53:16.850Z,17.48
2019-03-10T07:56:11.693Z,16.67
2019-03-10T07:59:12.324Z,12.73
2019-03-10T08:02:19.048Z,17.80
2019-03-10T08:05:28.661Z,19.37
2019-03-10T08:08:22.814Z,15.13
2019-03-10T08:11:06.981Z,14.03
2019-03-10T08:13:59.035Z,25.85
2019-03-10T08:17:07.529Z,13.65
2019-03-10T08:20:09.651Z,21.07
2019-03-10T08:23:19.306Z,15.58
2019-03-10T08:26:12.150Z,17.55
2019-03-10T08:29:06.913Z,15.95
2019-03-10T08:31:48.874Z,16.82
2019-03-10T08:34:43.197Z,17.37
2019-03-10T08:37:37.658Z,20.08
2019-03-10T08:40:43.862Z,15.85
2019-03-10T08:43:42.982Z,19.00
2019-03-10T08:46:35.733Z,14.47
2019-03-10T08:49:28.670Z,15.18
2019-03-10T08:52:25.574Z,14.15
2019-03-10T08:55:15.100Z,13.35
2019-03-10T08:58:22.725Z,16.62
2019-03-10T09:01:36.460Z,19.98
2019-03-10T09:04:29.148Z,19.27
2019-03-10T09:07:25.145Z,18.20
2019-03-10T09:10:20.261Z,19.42
2019-03-10T09:13:05.622Z,15.18
2019-03-10T09:15:56.094Z,20.62
2019-03-10T09:18:46.716Z,15.50
2019-03-10T09:21:51.301Z,14.10
2019-03-10T09:24:43.451Z,17.07
2019-03-10T09:27:35.542Z,17.37
2019-03-10T09:30:36.226Z,15.93
2019-03-10T09:33:43.545Z,17.27
2019-03-10T09:36:29.246Z,16.00
2019-03-10T09:39:22.303Z,18.20
2019-03-10T09:42:27.268Z,14.35
2019-03-10T09:45:23.846Z,17.82
2019-03-10T09:48:18.897Z,26.68
2019-03-10T09:51:19.161Z,26.82
2019-03-10T09:54:12.908Z,19.65
2019-03-10T09:57:16.805Z,17.92
2019-03-10T10:00:24.614Z,18.52
2019-03-10T10:03:18.874Z,17.42
2019-03-10T10:06:12.629Z,18.65
2019-03-10T10:09:05.380Z,19.07
2019-03-10T10:11:57.974Z,15.13
2019-03-10T10:14:52.430Z,14.35
2019-03-10T10:17:56.122Z,17.27
2019-03-10T10:20:50.539Z,18.40
2019-03-10T10:23:34.575Z,22.95
2019-03-10T10:26:48.147Z,17.87
2019-03-10T10:29:48.659Z,20.60
2019-03-10T10:32:41.637Z,17.98
2019-03-10T10:35:36.595Z,16.90
2019-03-10T10:38:31.148Z,19.17
2019-03-10T10:41:23.804Z,16.95
2019-03-10T10:44:16.484Z,16.52
2019-03-10T10:47:13.075Z,18.32
2019-03-10T10:50:06.265Z,17.62
2019-03-10T10:53:07.079Z,15.63
2019-03-10T10:56:01.073Z,17.23
2019-03-10T10:59:06.734Z,15.93
2019-03-10T11:01:52.410Z,20.52
2019-03-10T11:04:48.684Z,17.12
2019-03-10T11:07:52.238Z,14.25
2019-03-10T11:10:52.525Z,15.95
2019-03-10T11:13:45.456Z,15.68
2019-03-10T11:16:40.429Z,17.23
2019-03-10T11:19:47.260Z,15.88
2019-03-10T11:22:40.749Z,19.90
2019-03-10T11:25:34.476Z,15.78
2019-03-10T11:28:27.442Z,15.13
2019-03-10T11:31:14.018Z,19.10
2019-03-10T11:34:14.612Z,17.55
2019-03-10T11:37:09.252Z,16.90
2019-03-10T11:39:56.898Z,17.90
2019-03-10T11:43:06.638Z,19.45
2019-03-10T11:46:01.879Z,17.40
2019-03-10T11:48:48.536Z,18.57
2019-03-10T11:51:43.751Z,16.77
2019-03-10T11:54:41.115Z,18.62
2019-03-10T11:57:26.779Z,22.70
2019-03-10T12:00:12.348Z,16.37
2019-03-10T12:02:58.535Z,15.55
2019-03-10T12:05:45.409Z,21.40
2019-03-10T12:08:39.777Z,22.15
2019-03-10T12:11:16.915Z,20.77
2019-03-10T12:13:55.048Z,16.25
2019-03-10T12:16:32.138Z,18.85
2019-03-10T12:19:09.439Z,16.23
2019-03-10T12:21:46.501Z,16.77
2019-03-10T12:24:21.636Z,17.75
2019-03-10T12:26:59.042Z,16.85
2019-03-10T12:29:38.090Z,19.70
2019-03-10T12:32:15.251Z,21.73
2019-03-10T12:34:52.459Z,13.95
2019-03-10T12:37:29.625Z,17.82
2019-03-10T12:40:07.969Z,15.10
2019-03-10T12:42:44.989Z,17.95
2019-03-10T12:45:22.957Z,18.00
2019-03-10T12:48:00.440Z,16.73
2019-03-10T12:50:37.681Z,13.78
2019-03-10T12:53:14.758Z,13.30
2019-03-10T12:55:51.938Z,17.00
2019-03-10T12:58:28.940Z,18.20
2019-03-10T13:01:06.846Z,16.73
2019-03-10T13:03:44.284Z,17.37
2019-03-10T13:06:21.498Z,15.75
2019-03-10T13:08:58.555Z,14.53
2019-03-10T13:11:35.675Z,15.80
2019-03-10T13:14:12.790Z,14.63
2019-03-10T13:16:50.427Z,18.67
2019-03-10T13:19:27.507Z,16.93
2019-03-10T13:22:04.538Z,18.70
2019-03-10T13:24:41.545Z,19.25
2019-03-10T13:27:18.736Z,21.35
2019-03-10T13:29:56.249Z,20.12
2019-03-10T13:32:33.498Z,20.70
2019-03-10T13:35:11.455Z,22.98
2019-03-10T13:37:49.932Z,21.37
2019-03-10T13:40:27.059Z,26.48
2019-03-10T13:43:04.155Z,25.27
2019-03-10T13:45:41.228Z,29.37
2019-03-10T13:48:18.545Z,25.82
2019-03-10T13:50:56.891Z,29.32
2019-03-10T13:53:34.030Z,28.05
2019-03-10T13:56:11.710Z,22.62
2019-03-10T13:58:48.976Z,27.48
2019-03-10T14:01:26.179Z,29.60
2019-03-10T14:04:03.825Z,27.15
2019-03-10T14:06:40.983Z,31.37
2019-03-10T14:09:20.959Z,29.07
2019-03-10T14:11:58.534Z,26.97
2019-03-10T14:14:35.745Z,29.87
2019-03-10T14:17:12.931Z,25.05
2019-03-10T14:19:50.085Z,30.15
2019-03-10T14:22:24.627Z,27.07
2019-03-10T14:25:01.679Z,27.67
2019-03-10T14:27:38.699Z,29.90
2019-03-10T14:30:16.349Z,31.05
2019-03-10T14:32:53.479Z,28.77
2019-03-10T14:35:31.204Z,27.70
2019-03-10T14:38:08.569Z,28.62
2019-03-10T14:40:43.655Z,25.05
2019-03-10T14:43:18.334Z,29.95
2019-03-10T14:45:55.563Z,36.28
2019-03-10T14:48:32.579Z,25.70
2019-03-10T14:51:09.778Z,30.57
2019-03-10T14:53:46.846Z,30.52
2019-03-10T14:56:21.555Z,35.85
2019-03-10T14:58:58.590Z,29.02
2019-03-10T15:01:35.827Z,29.48
2019-03-10T15:04:13.348Z,30.15
2019-03-10T15:06:50.377Z,29.70
2019-03-10T15:09:27.499Z,26.52
2019-03-10T15:12:04.756Z,24.98
2019-03-10T15:14:39.550Z,20.00
2019-03-10T15:17:17.720Z,22.30
2019-03-10T15:19:54.744Z,16.48
2019-03-10T15:22:31.887Z,21.75
2019-03-10T15:25:09.003Z,15.75
2019-03-10T15:27:46.186Z,16.23
2019-03-10T15:30:24.264Z,13.48
2019-03-10T15:33:01.459Z,13.48
2019-03-10T15:35:38.602Z,11.18
2019-03-10T15:38:15.786Z,9.00
2019-03-10T15:40:53.280Z,11.35
2019-03-10T15:43:31.803Z,12.50
2019-03-10T15:46:06.351Z,12.88
2019-03-10T15:48:41.014Z,13.08
2019-03-10T15:51:18.175Z,13.18
2019-03-10T15:53:55.296Z,14.47
2019-03-10T15:56:32.403Z,11.73
2019-03-10T15:59:09.682Z,12.35
2019-03-10T16:01:46.844Z,13.75
2019-03-10T16:04:26.530Z,12.82
2019-03-10T16:07:03.768Z,15.43
2019-03-10T16:09:40.918Z,10.03
2019-03-10T16:12:19.572Z,12.55
2019-03-10T16:14:56.911Z,16.52
2019-03-10T16:17:34.065Z,12.78
2019-03-10T16:20:11.704Z,10.20
2019-03-10T16:22:48.887Z,17.02
2019-03-10T16:25:26.411Z,14.28
2019-03-10T16:28:03.441Z,12.15
2019-03-10T16:30:40.594Z,11.63
2019-03-10T16:33:17.615Z,11.20
2019-03-10T16:35:55.090Z,14.23
2019-03-10T16:38:32.178Z,11.20
2019-03-10T16:41:09.353Z,15.72
2019-03-10T16:43:46.447Z,17.17
2019-03-10T16:46:23.695Z,13.72
2019-03-10T16:49:00.847Z,16.23
2019-03-10T16:51:38.068Z,16.37
2019-03-10T16:54:15.190Z,15.38
2019-03-10T16:56:52.286Z,17.10
2019-03-10T16:59:30.838Z,19.85
2019-03-10T17:02:08.026Z,16.85
2019-03-10T17:04:42.824Z,14.95
2019-03-10T17:07:17.432Z,21.00
2019-03-10T17:09:54.393Z,21.05
2019-03-10T17:12:31.914Z,22.35
2019-03-10T17:15:10.329Z,28.47
2019-03-10T17:17:48.670Z,22.10
2019-03-10T17:20:23.761Z,31.87
2019-03-10T17:23:00.947Z,29.15
2019-03-10T17:25:38.134Z,27.73
2019-03-10T17:28:15.306Z,26.57
2019-03-10T17:30:52.519Z,28.02
2019-03-10T17:33:29.898Z,24.02
2019-03-10T17:36:07.036Z,18.10
2019-03-10T17:38:44.299Z,18.57
2019-03-10T17:41:21.467Z,17.67
2019-03-10T17:44:00.414Z,11.18
2019-03-10T17:46:37.487Z,13.83
2019-03-10T17:49:14.664Z,17.07
2019-03-10T17:51:52.300Z,11.28
2019-03-10T17:54:29.415Z,13.55
2019-03-10T17:57:06.552Z,15.83
2019-03-10T17:59:43.630Z,11.43
2019-03-10T18:05:58.680Z,12.33
2019-03-10T18:08:37.556Z,12.50
2019-03-10T18:11:12.218Z,16.02
2019-03-10T18:13:49.335Z,12.15
2019-03-10T18:16:26.485Z,15.93
2019-03-10T18:19:03.561Z,18.15
2019-03-10T18:21:40.759Z,14.78
2019-03-10T18:24:17.888Z,16.35
2019-03-10T18:26:55.036Z,16.65
2019-03-10T18:29:32.125Z,14.83
2019-03-10T18:32:09.230Z,22.85
2019-03-10T18:34:47.026Z,18.55
2019-03-10T18:37:21.695Z,16.45
2019-03-10T18:39:56.325Z,21.40
2019-03-10T18:42:33.303Z,14.83
2019-03-10T18:45:11.867Z,16.17
2019-03-10T18:47:49.119Z,15.78
2019-03-10T18:50:26.639Z,14.33
2019-03-10T18:53:03.744Z,17.52
2019-03-10T18:55:40.847Z,16.80
2019-03-10T18:58:18.096Z,14.63
2019-03-10T19:00:55.305Z,12.43
2019-03-10T19:03:32.383Z,16.25
2019-03-10T19:06:09.534Z,19.57
2019-03-10T19:08:46.660Z,29.30
2019-03-10T19:11:21.356Z,22.05
2019-03-10T19:13:58.396Z,24.65
2019-03-10T19:16:35.668Z,17.77
2019-03-10T19:19:12.823Z,19.87
2019-03-10T19:21:50.058Z,19.92
2019-03-10T19:24:24.984Z,26.85
2019-03-10T19:27:02.133Z,26.68
2019-03-10T19:29:39.302Z,35.30
2019-03-10T19:32:16.544Z,35.58
2019-03-10T19:34:53.475Z,43.58
2019-03-10T19:37:28.011Z,51.60
2019-03-10T19:40:05.140Z,54.90
2019-03-10T19:42:42.297Z,64.87
2019-03-10T19:45:20.206Z,69.87
2019-03-10T19:47:57.584Z,68.83
2019-03-10T19:50:32.290Z,72.55
2019-03-10T19:53:06.974Z,72.37
2019-03-10T19:55:44.111Z,72.40
2019-03-10T19:58:21.347Z,71.22
2019-03-10T20:00:56.128Z,71.57
2019-03-10T20:03:33.455Z,65.75
2019-03-10T20:06:11.628Z,63.80
2019-03-10T20:08:48.844Z,66.72
2019-03-10T20:11:23.509Z,69.42
2019-03-10T20:14:00.634Z,64.82
2019-03-10T20:16:35.273Z,60.85
2019-03-10T20:19:12.318Z,65.90
2019-03-10T20:21:49.832Z,67.27
2019-03-10T20:24:24.457Z,74.37
2019-03-10T20:27:01.625Z,68.15
2019-03-10T20:29:38.931Z,65.25
2019-03-10T20:32:15.990Z,71.42
2019-03-10T20:34:53.216Z,60.48
2019-03-10T20:37:30.294Z,63.87
2019-03-10T20:40:07.579Z,61.90
2019-03-10T20:42:44.923Z,66.87
2019-03-10T20:45:48.263Z,60.08
2019-03-10T20:48:21.650Z,61.28
2019-03-10T20:51:16.656Z,68.67
2019-03-10T20:53:52.926Z,58.90
2019-03-10T20:56:30.165Z,59.58
2019-03-10T20:59:07.244Z,55.88
2019-03-10T21:01:44.366Z,56.88
2019-03-10T21:04:22.873Z,65.37
2019-03-10T21:07:00.451Z,56.28
2019-03-10T21:09:37.624Z,53.95
2019-03-10T21:12:12.447Z,55.85
2019-03-10T21:14:49.441Z,64.47
2019-03-10T21:17:26.565Z,65.25
2019-03-10T21:20:03.667Z,54.80
2019-03-10T21:22:39.867Z,62.98
2019-03-10T21:25:18.890Z,57.08
2019-03-10T21:27:56.644Z,55.92
2019-03-10T21:30:31.269Z,55.17
2019-03-10T21:33:08.602Z,55.65
2019-03-10T21:35:43.429Z,53.08
2019-03-10T21:38:18.204Z,50.67
2019-03-10T21:40:56.600Z,53.65
2019-03-10T21:43:34.783Z,55.23
2019-03-10T21:46:11.896Z,58.73
2019-03-10T21:48:48.951Z,58.00
2019-03-10T21:51:26.315Z,57.83
2019-03-10T21:54:03.890Z,48.55
2019-03-10T21:56:40.959Z,48.00
2019-03-10T21:59:18.046Z,46.85
2019-03-10T22:01:52.974Z,45.95
2019-03-10T22:04:30.105Z,52.48
2019-03-10T22:07:07.419Z,51.37
2019-03-10T22:09:46.252Z,44.13
2019-03-10T22:12:21.646Z,46.50
2019-03-10T22:14:57.672Z,53.28
2019-03-10T22:17:34.770Z,51.15
2019-03-10T22:20:13.220Z,50.17
2019-03-10T22:22:51.228Z,48.42
2019-03-10T22:25:28.425Z,41.40
2019-03-10T22:28:05.594Z,48.48
2019-03-10T22:30:42.866Z,49.53
2019-03-10T22:33:17.490Z,47.25
2019-03-10T22:35:54.584Z,43.17
2019-03-10T22:38:31.731Z,50.35
2019-03-10T22:41:08.965Z,44.83
2019-03-10T22:43:46.415Z,43.50
2019-03-10T22:46:24.043Z,46.13
2019-03-10T22:49:01.282Z,46.45
2019-03-10T22:51:35.943Z,57.05
2019-03-10T22:54:13.142Z,40.58
2019-03-10T22:56:47.829Z,52.23
2019-03-10T22:59:22.482Z,53.58
2019-03-10T23:01:59.657Z,49.93
2019-03-10T23:04:36.770Z,50.48
2019-03-10T23:07:14.060Z,51.80
2019-03-10T23:09:51.212Z,43.17
2019-03-10T23:12:28.592Z,58.23
2019-03-10T23:15:15.267Z,46.30
2019-03-10T23:17:52.444Z,46.08
2019-03-10T23:20:27.041Z,42.50
2019-03-10T23:23:01.755Z,43.78
2019-03-10T23:25:36.389Z,41.13
2019-03-10T23:28:13.558Z,43.10
2019-03-10T23:30:50.668Z,63.25
2019-03-10T23:33:27.934Z,42.50
2019-03-10T23:36:03.054Z,37.33
2019-03-10T23:38:40.329Z,48.48
2019-03-10T23:41:17.414Z,44.93
2019-03-10T23:43:52.213Z,38.25
2019-03-10T23:46:29.347Z,46.28
2019-03-10T23:49:06.374Z,44.03
2019-03-10T23:51:43.440Z,39.53
2019-03-10T23:54:18.409Z,50.38
2019-03-10T23:56:55.526Z,56.23
2019-03-10T23:59:32.869Z,54.67
